sensor_id;sensor_type;location;lat;lon;timestamp;P1;durP1;ratioP1;P2;durP2;ratioP2
41261;SDS011;29629;52.532;13.352;2022-11-20T00:01:27;48.00;;;34.53;;
41261;SDS011;29629;52.532;13.352;2022-11-20T00:03:55;46.08;;;35.50;;
41261;SDS011;29629;52.532;13.352;2022-11-20T00:06:23;45.50;;;35.95;;
41261;SDS011;29629;52.532;13.352;2022-11-20T00:08:53;39.20;;;32.55;;
41261;SDS011;29629;52.532;13.352;2022-11-20T00:11:21;46.63;;;36.13;;
41261;SDS011;29629;52.532;13.352;2022-11-20T00:13:50;45.92;;;36.83;;
41261;SDS011;29629;52.532;13.352;2022-11-20T00:16:18;51.80;;;36.05;;
41261;SDS011;29629;52.532;13.352;2022-11-20T00:18:49;49.65;;;38.20;;
41261;SDS011;29629;52.532;13.352;2022-11-20T00:21:17;47.60;;;35.97;;
41261;SDS011;29629;52.532;13.352;2022-11-20T00:23:45;43.22;;;35.25;;
41261;SDS011;29629;52.532;13.352;2022-11-20T00:26:13;47.03;;;37.25;;
41261;SDS011;29629;52.532;13.352;2022-11-20T00:28:42;44.42;;;35.47;;
41261;SDS011;29629;52.532;13.352;2022-11-20T00:31:10;42.78;;;35.63;;
41261;SDS011;29629;52.532;13.352;2022-11-20T00:33:39;40.92;;;36.42;;
41261;SDS011;29629;52.532;13.352;2022-11-20T00:36:10;47.50;;;36.42;;
41261;SDS011;29629;52.532;13.352;2022-11-20T00:38:38;45.65;;;34.85;;
41261;SDS011;29629;52.532;13.352;2022-11-20T00:41:06;47.28;;;36.45;;
41261;SDS011;29629;52.532;13.352;2022-11-20T00:43:35;41.85;;;34.20;;
41261;SDS011;29629;52.532;13.352;2022-11-20T00:46:03;35.78;;;32.13;;
41261;SDS011;29629;52.532;13.352;2022-11-20T00:48:32;41.63;;;33.03;;
41261;SDS011;29629;52.532;13.352;2022-11-20T00:50:59;35.55;;;31.42;;
41261;SDS011;29629;52.532;13.352;2022-11-20T00:53:27;37.08;;;32.72;;
41261;SDS011;29629;52.532;13.352;2022-11-20T00:55:54;46.65;;;34.95;;
41261;SDS011;29629;52.532;13.352;2022-11-20T00:58:22;40.90;;;34.53;;
41261;SDS011;29629;52.532;13.352;2022-11-20T01:00:50;63.33;;;40.92;;
41261;SDS011;29629;52.532;13.352;2022-11-20T01:03:17;44.58;;;36.25;;
41261;SDS011;29629;52.532;13.352;2022-11-20T01:05:44;73.50;;;45.13;;
41261;SDS011;29629;52.532;13.352;2022-11-20T01:08:11;38.45;;;33.55;;
41261;SDS011;29629;52.532;13.352;2022-11-20T01:10:39;45.03;;;36.08;;
41261;SDS011;29629;52.532;13.352;2022-11-20T01:13:06;47.15;;;37.33;;
41261;SDS011;29629;52.532;13.352;2022-11-20T01:15:50;39.55;;;34.50;;
41261;SDS011;29629;52.532;13.352;2022-11-20T01:18:17;38.00;;;33.05;;
41261;SDS011;29629;52.532;13.352;2022-11-20T01:20:44;45.35;;;35.92;;
41261;SDS011;29629;52.532;13.352;2022-11-20T01:23:11;47.20;;;38.10;;
41261;SDS011;29629;52.532;13.352;2022-11-20T01:25:39;46.63;;;36.08;;
41261;SDS011;29629;52.532;13.352;2022-11-20T01:28:06;40.95;;;34.35;;
41261;SDS011;29629;52.532;13.352;2022-11-20T01:30:33;47.10;;;36.08;;
41261;SDS011;29629;52.532;13.352;2022-11-20T01:33:00;55.95;;;38.17;;
41261;SDS011;29629;52.532;13.352;2022-11-20T01:35:27;43.83;;;35.13;;
41261;SDS011;29629;52.532;13.352;2022-11-20T01:37:54;45.38;;;34.15;;
41261;SDS011;29629;52.532;13.352;2022-11-20T01:40:21;46.08;;;35.05;;
41261;SDS011;29629;52.532;13.352;2022-11-20T01:42:52;42.50;;;33.88;;
41261;SDS011;29629;52.532;13.352;2022-11-20T01:45:57;46.08;;;35.65;;
41261;SDS011;29629;52.532;13.352;2022-11-20T01:48:31;45.15;;;35.13;;
41261;SDS011;29629;52.532;13.352;2022-11-20T01:51:03;49.25;;;35.20;;
41261;SDS011;29629;52.532;13.352;2022-11-20T01:53:33;41.28;;;33.35;;
41261;SDS011;29629;52.532;13.352;2022-11-20T01:56:03;47.90;;;34.97;;
41261;SDS011;29629;52.532;13.352;2022-11-20T01:58:37;53.80;;;37.80;;
41261;SDS011;29629;52.532;13.352;2022-11-20T02:01:07;52.55;;;38.30;;
41261;SDS011;29629;52.532;13.352;2022-11-20T02:03:34;51.40;;;37.97;;
41261;SDS011;29629;52.532;13.352;2022-11-20T02:06:05;43.65;;;35.33;;
41261;SDS011;29629;52.532;13.352;2022-11-20T02:08:38;53.22;;;39.67;;
41261;SDS011;29629;52.532;13.352;2022-11-20T02:11:05;52.58;;;38.47;;
41261;SDS011;29629;52.532;13.352;2022-11-20T02:13:32;51.40;;;38.90;;
41261;SDS011;29629;52.532;13.352;2022-11-20T02:16:10;43.78;;;35.45;;
41261;SDS011;29629;52.532;13.352;2022-11-20T02:18:42;50.15;;;38.92;;
41261;SDS011;29629;52.532;13.352;2022-11-20T02:21:12;57.35;;;41.67;;
41261;SDS011;29629;52.532;13.352;2022-11-20T02:24:04;44.20;;;36.78;;
41261;SDS011;29629;52.532;13.352;2022-11-20T02:26:35;48.88;;;39.20;;
41261;SDS011;29629;52.532;13.352;2022-11-20T02:29:07;64.50;;;43.35;;
41261;SDS011;29629;52.532;13.352;2022-11-20T02:31:38;53.83;;;40.58;;
41261;SDS011;29629;52.532;13.352;2022-11-20T02:34:07;50.85;;;39.83;;
41261;SDS011;29629;52.532;13.352;2022-11-20T02:36:34;59.90;;;42.70;;
41261;SDS011;29629;52.532;13.352;2022-11-20T02:39:05;59.15;;;42.83;;
41261;SDS011;29629;52.532;13.352;2022-11-20T02:41:33;53.65;;;42.70;;
41261;SDS011;29629;52.532;13.352;2022-11-20T02:44:02;58.15;;;41.10;;
41261;SDS011;29629;52.532;13.352;2022-11-20T02:46:30;52.50;;;41.65;;
41261;SDS011;29629;52.532;13.352;2022-11-20T02:48:57;54.05;;;42.67;;
41261;SDS011;29629;52.532;13.352;2022-11-20T02:51:24;56.33;;;41.13;;
41261;SDS011;29629;52.532;13.352;2022-11-20T02:53:51;58.92;;;43.63;;
41261;SDS011;29629;52.532;13.352;2022-11-20T02:56:19;53.70;;;41.35;;
41261;SDS011;29629;52.532;13.352;2022-11-20T02:58:46;52.20;;;39.90;;
41261;SDS011;29629;52.532;13.352;2022-11-20T03:01:13;50.13;;;38.00;;
41261;SDS011;29629;52.532;13.352;2022-11-20T03:03:40;43.72;;;34.78;;
41261;SDS011;29629;52.532;13.352;2022-11-20T03:06:07;47.80;;;36.72;;
41261;SDS011;29629;52.532;13.352;2022-11-20T03:08:34;41.78;;;35.17;;
41261;SDS011;29629;52.532;13.352;2022-11-20T03:11:02;41.63;;;35.53;;
41261;SDS011;29629;52.532;13.352;2022-11-20T03:13:31;49.33;;;37.55;;
41261;SDS011;29629;52.532;13.352;2022-11-20T03:16:04;55.35;;;39.72;;
41261;SDS011;29629;52.532;13.352;2022-11-20T03:18:35;46.05;;;37.92;;
41261;SDS011;29629;52.532;13.352;2022-11-20T03:21:02;48.97;;;37.33;;
41261;SDS011;29629;52.532;13.352;2022-11-20T03:23:29;57.42;;;37.67;;
41261;SDS011;29629;52.532;13.352;2022-11-20T03:26:07;61.80;;;41.05;;
41261;SDS011;29629;52.532;13.352;2022-11-20T03:28:41;47.28;;;36.95;;
41261;SDS011;29629;52.532;13.352;2022-11-20T03:31:09;49.50;;;36.15;;
41261;SDS011;29629;52.532;13.352;2022-11-20T03:33:37;42.83;;;34.10;;
41261;SDS011;29629;52.532;13.352;2022-11-20T03:36:06;48.25;;;35.88;;
41261;SDS011;29629;52.532;13.352;2022-11-20T03:38:35;45.70;;;35.67;;
41261;SDS011;29629;52.532;13.352;2022-11-20T03:41:04;53.58;;;38.33;;
41261;SDS011;29629;52.532;13.352;2022-11-20T03:43:32;47.47;;;36.35;;
41261;SDS011;29629;52.532;13.352;2022-11-20T03:46:00;39.60;;;35.30;;
41261;SDS011;29629;52.532;13.352;2022-11-20T03:48:28;47.60;;;36.17;;
41261;SDS011;29629;52.532;13.352;2022-11-20T03:51:05;54.05;;;39.28;;
41261;SDS011;29629;52.532;13.352;2022-11-20T03:53:33;57.88;;;41.95;;
41261;SDS011;29629;52.532;13.352;2022-11-20T03:56:00;52.30;;;39.75;;
41261;SDS011;29629;52.532;13.352;2022-11-20T03:58:27;54.30;;;39.67;;
41261;SDS011;29629;52.532;13.352;2022-11-20T04:00:54;53.25;;;40.10;;
41261;SDS011;29629;52.532;13.352;2022-11-20T04:03:22;57.50;;;41.80;;
41261;SDS011;29629;52.532;13.352;2022-11-20T04:05:49;53.30;;;39.20;;
41261;SDS011;29629;52.532;13.352;2022-11-20T04:08:16;57.65;;;41.47;;
41261;SDS011;29629;52.532;13.352;2022-11-20T04:10:43;61.97;;;43.33;;
41261;SDS011;29629;52.532;13.352;2022-11-20T04:13:10;48.65;;;39.78;;
41261;SDS011;29629;52.532;13.352;2022-11-20T04:15:37;53.55;;;40.88;;
41261;SDS011;29629;52.532;13.352;2022-11-20T04:18:04;60.75;;;41.90;;
41261;SDS011;29629;52.532;13.352;2022-11-20T04:20:32;55.50;;;40.10;;
41261;SDS011;29629;52.532;13.352;2022-11-20T04:22:59;57.92;;;40.85;;
41261;SDS011;29629;52.532;13.352;2022-11-20T04:25:26;51.13;;;39.28;;
41261;SDS011;29629;52.532;13.352;2022-11-20T04:27:53;55.83;;;40.72;;
41261;SDS011;29629;52.532;13.352;2022-11-20T04:30:20;56.85;;;41.15;;
41261;SDS011;29629;52.532;13.352;2022-11-20T04:32:47;49.95;;;37.83;;
41261;SDS011;29629;52.532;13.352;2022-11-20T04:35:14;47.10;;;37.80;;
41261;SDS011;29629;52.532;13.352;2022-11-20T04:37:43;59.28;;;42.63;;
41261;SDS011;29629;52.532;13.352;2022-11-20T04:40:10;59.90;;;38.67;;
41261;SDS011;29629;52.532;13.352;2022-11-20T04:42:37;52.58;;;38.30;;
41261;SDS011;29629;52.532;13.352;2022-11-20T04:45:05;63.53;;;43.40;;
41261;SDS011;29629;52.532;13.352;2022-11-20T04:47:32;65.93;;;44.10;;
41261;SDS011;29629;52.532;13.352;2022-11-20T04:49:59;54.72;;;41.22;;
41261;SDS011;29629;52.532;13.352;2022-11-20T04:52:26;54.40;;;41.60;;
41261;SDS011;29629;52.532;13.352;2022-11-20T04:54:54;57.13;;;41.85;;
41261;SDS011;29629;52.532;13.352;2022-11-20T04:57:21;57.17;;;42.13;;
41261;SDS011;29629;52.532;13.352;2022-11-20T04:59:48;49.75;;;37.90;;
41261;SDS011;29629;52.532;13.352;2022-11-20T05:02:15;45.50;;;36.45;;
41261;SDS011;29629;52.532;13.352;2022-11-20T05:04:42;52.08;;;39.10;;
41261;SDS011;29629;52.532;13.352;2022-11-20T05:07:09;53.03;;;41.20;;
41261;SDS011;29629;52.532;13.352;2022-11-20T05:09:36;49.80;;;38.75;;
41261;SDS011;29629;52.532;13.352;2022-11-20T05:12:06;43.20;;;35.92;;
41261;SDS011;29629;52.532;13.352;2022-11-20T05:14:33;44.92;;;37.15;;
41261;SDS011;29629;52.532;13.352;2022-11-20T05:17:00;59.50;;;41.58;;
41261;SDS011;29629;52.532;13.352;2022-11-20T05:19:27;54.42;;;40.58;;
41261;SDS011;29629;52.532;13.352;2022-11-20T05:21:54;49.67;;;38.88;;
41261;SDS011;29629;52.532;13.352;2022-11-20T05:24:21;46.72;;;38.45;;
41261;SDS011;29629;52.532;13.352;2022-11-20T05:26:48;58.25;;;40.85;;
41261;SDS011;29629;52.532;13.352;2022-11-20T05:29:16;52.20;;;39.92;;
41261;SDS011;29629;52.532;13.352;2022-11-20T05:31:43;55.85;;;42.35;;
41261;SDS011;29629;52.532;13.352;2022-11-20T05:34:10;59.40;;;42.13;;
41261;SDS011;29629;52.532;13.352;2022-11-20T05:36:37;59.72;;;41.55;;
41261;SDS011;29629;52.532;13.352;2022-11-20T05:39:04;50.80;;;39.20;;
41261;SDS011;29629;52.532;13.352;2022-11-20T05:41:32;64.30;;;44.05;;
41261;SDS011;29629;52.532;13.352;2022-11-20T05:43:59;57.83;;;42.08;;
41261;SDS011;29629;52.532;13.352;2022-11-20T05:46:28;54.33;;;40.17;;
41261;SDS011;29629;52.532;13.352;2022-11-20T05:48:55;57.67;;;41.42;;
41261;SDS011;29629;52.532;13.352;2022-11-20T05:51:22;50.25;;;39.05;;
41261;SDS011;29629;52.532;13.352;2022-11-20T05:53:49;60.47;;;42.75;;
41261;SDS011;29629;52.532;13.352;2022-11-20T05:56:16;49.42;;;39.72;;
41261;SDS011;29629;52.532;13.352;2022-11-20T05:58:45;54.60;;;41.13;;
41261;SDS011;29629;52.532;13.352;2022-11-20T06:01:13;54.72;;;40.50;;
41261;SDS011;29629;52.532;13.352;2022-11-20T06:03:45;55.30;;;40.20;;
41261;SDS011;29629;52.532;13.352;2022-11-20T06:06:12;57.42;;;40.58;;
41261;SDS011;29629;52.532;13.352;2022-11-20T06:08:40;53.83;;;40.30;;
41261;SDS011;29629;52.532;13.352;2022-11-20T06:11:08;55.00;;;40.25;;
41261;SDS011;29629;52.532;13.352;2022-11-20T06:13:37;53.50;;;40.47;;
41261;SDS011;29629;52.532;13.352;2022-11-20T06:16:04;52.47;;;40.20;;
41261;SDS011;29629;52.532;13.352;2022-11-20T06:18:31;53.28;;;39.85;;
41261;SDS011;29629;52.532;13.352;2022-11-20T06:21:00;64.63;;;43.35;;
41261;SDS011;29629;52.532;13.352;2022-11-20T06:23:29;57.05;;;41.22;;
41261;SDS011;29629;52.532;13.352;2022-11-20T06:25:57;58.72;;;42.00;;
41261;SDS011;29629;52.532;13.352;2022-11-20T06:28:24;58.47;;;41.63;;
41261;SDS011;29629;52.532;13.352;2022-11-20T06:30:51;64.88;;;44.83;;
41261;SDS011;29629;52.532;13.352;2022-11-20T06:33:18;65.00;;;44.13;;
41261;SDS011;29629;52.532;13.352;2022-11-20T06:35:45;54.58;;;41.58;;
41261;SDS011;29629;52.532;13.352;2022-11-20T06:38:13;62.47;;;43.03;;
41261;SDS011;29629;52.532;13.352;2022-11-20T06:40:40;67.18;;;45.67;;
41261;SDS011;29629;52.532;13.352;2022-11-20T06:43:07;72.60;;;48.55;;
41261;SDS011;29629;52.532;13.352;2022-11-20T06:45:34;73.03;;;48.58;;
41261;SDS011;29629;52.532;13.352;2022-11-20T06:48:01;69.10;;;47.00;;
41261;SDS011;29629;52.532;13.352;2022-11-20T06:50:28;65.53;;;45.42;;
41261;SDS011;29629;52.532;13.352;2022-11-20T06:52:55;62.70;;;44.67;;
41261;SDS011;29629;52.532;13.352;2022-11-20T06:55:24;63.60;;;43.67;;
41261;SDS011;29629;52.532;13.352;2022-11-20T06:57:51;57.45;;;42.72;;
41261;SDS011;29629;52.532;13.352;2022-11-20T07:00:17;70.60;;;46.58;;
41261;SDS011;29629;52.532;13.352;2022-11-20T07:02:44;56.03;;;42.80;;
41261;SDS011;29629;52.532;13.352;2022-11-20T07:05:11;67.07;;;44.47;;
41261;SDS011;29629;52.532;13.352;2022-11-20T07:07:38;63.22;;;43.70;;
41261;SDS011;29629;52.532;13.352;2022-11-20T07:10:05;80.35;;;48.85;;
41261;SDS011;29629;52.532;13.352;2022-11-20T07:12:34;65.65;;;44.58;;
41261;SDS011;29629;52.532;13.352;2022-11-20T07:15:01;59.28;;;43.72;;
41261;SDS011;29629;52.532;13.352;2022-11-20T07:17:29;60.88;;;44.42;;
41261;SDS011;29629;52.532;13.352;2022-11-20T07:19:55;58.35;;;42.97;;
41261;SDS011;29629;52.532;13.352;2022-11-20T07:22:22;61.95;;;44.05;;
41261;SDS011;29629;52.532;13.352;2022-11-20T07:24:49;66.43;;;45.67;;
41261;SDS011;29629;52.532;13.352;2022-11-20T07:27:16;75.13;;;47.70;;
41261;SDS011;29629;52.532;13.352;2022-11-20T07:29:44;68.47;;;47.30;;
41261;SDS011;29629;52.532;13.352;2022-11-20T07:32:11;68.20;;;46.97;;
41261;SDS011;29629;52.532;13.352;2022-11-20T07:34:38;67.93;;;46.72;;
41261;SDS011;29629;52.532;13.352;2022-11-20T07:37:05;57.75;;;43.50;;
41261;SDS011;29629;52.532;13.352;2022-11-20T07:39:32;63.78;;;44.92;;
41261;SDS011;29629;52.532;13.352;2022-11-20T07:41:59;63.20;;;43.72;;
41261;SDS011;29629;52.532;13.352;2022-11-20T07:44:26;68.75;;;46.88;;
41261;SDS011;29629;52.532;13.352;2022-11-20T07:46:54;66.78;;;46.88;;
41261;SDS011;29629;52.532;13.352;2022-11-20T07:49:21;62.92;;;45.67;;
41261;SDS011;29629;52.532;13.352;2022-11-20T07:51:49;70.53;;;47.08;;
41261;SDS011;29629;52.532;13.352;2022-11-20T07:54:16;74.15;;;53.88;;
41261;SDS011;29629;52.532;13.352;2022-11-20T07:56:43;71.20;;;48.40;;
41261;SDS011;29629;52.532;13.352;2022-11-20T07:59:10;66.63;;;46.85;;
41261;SDS011;29629;52.532;13.352;2022-11-20T08:01:37;65.88;;;46.00;;
41261;SDS011;29629;52.532;13.352;2022-11-20T08:04:17;65.80;;;47.78;;
41261;SDS011;29629;52.532;13.352;2022-11-20T08:06:44;78.32;;;51.13;;
41261;SDS011;29629;52.532;13.352;2022-11-20T08:09:10;64.82;;;45.55;;
41261;SDS011;29629;52.532;13.352;2022-11-20T08:11:38;76.40;;;47.30;;
41261;SDS011;29629;52.532;13.352;2022-11-20T08:14:22;68.43;;;48.72;;
41261;SDS011;29629;52.532;13.352;2022-11-20T08:16:49;69.60;;;48.47;;
41261;SDS011;29629;52.532;13.352;2022-11-20T08:19:18;76.50;;;50.60;;
41261;SDS011;29629;52.532;13.352;2022-11-20T08:21:45;66.38;;;46.08;;
41261;SDS011;29629;52.532;13.352;2022-11-20T08:24:12;73.80;;;50.65;;
41261;SDS011;29629;52.532;13.352;2022-11-20T08:26:39;75.10;;;49.47;;
41261;SDS011;29629;52.532;13.352;2022-11-20T08:29:06;81.50;;;52.70;;
41261;SDS011;29629;52.532;13.352;2022-11-20T08:31:34;70.78;;;50.25;;
41261;SDS011;29629;52.532;13.352;2022-11-20T08:34:01;72.05;;;50.40;;
41261;SDS011;29629;52.532;13.352;2022-11-20T08:36:32;71.30;;;50.60;;
41261;SDS011;29629;52.532;13.352;2022-11-20T08:39:00;68.85;;;48.72;;
41261;SDS011;29629;52.532;13.352;2022-11-20T08:41:27;78.35;;;52.75;;
41261;SDS011;29629;52.532;13.352;2022-11-20T08:43:56;76.10;;;50.95;;
41261;SDS011;29629;52.532;13.352;2022-11-20T08:46:24;70.30;;;48.92;;
41261;SDS011;29629;52.532;13.352;2022-11-20T08:48:54;76.38;;;49.20;;
41261;SDS011;29629;52.532;13.352;2022-11-20T08:51:20;71.38;;;49.75;;
41261;SDS011;29629;52.532;13.352;2022-11-20T08:53:49;73.45;;;49.83;;
41261;SDS011;29629;52.532;13.352;2022-11-20T08:56:16;68.40;;;48.47;;
41261;SDS011;29629;52.532;13.352;2022-11-20T08:58:43;74.85;;;48.35;;
41261;SDS011;29629;52.532;13.352;2022-11-20T09:01:10;64.80;;;45.50;;
41261;SDS011;29629;52.532;13.352;2022-11-20T09:03:37;67.15;;;47.05;;
41261;SDS011;29629;52.532;13.352;2022-11-20T09:06:05;65.15;;;45.70;;
41261;SDS011;29629;52.532;13.352;2022-11-20T09:08:33;62.10;;;44.13;;
41261;SDS011;29629;52.532;13.352;2022-11-20T09:11:03;72.80;;;47.40;;
41261;SDS011;29629;52.532;13.352;2022-11-20T09:13:31;68.57;;;47.65;;
41261;SDS011;29629;52.532;13.352;2022-11-20T09:16:00;73.10;;;47.08;;
41261;SDS011;29629;52.532;13.352;2022-11-20T09:18:28;61.72;;;43.83;;
41261;SDS011;29629;52.532;13.352;2022-11-20T09:20:56;64.93;;;46.10;;
41261;SDS011;29629;52.532;13.352;2022-11-20T09:23:24;63.28;;;45.13;;
41261;SDS011;29629;52.532;13.352;2022-11-20T09:25:51;69.90;;;47.65;;
41261;SDS011;29629;52.532;13.352;2022-11-20T09:28:21;69.70;;;47.75;;
41261;SDS011;29629;52.532;13.352;2022-11-20T09:30:48;72.10;;;47.42;;
41261;SDS011;29629;52.532;13.352;2022-11-20T09:33:15;71.70;;;47.67;;
41261;SDS011;29629;52.532;13.352;2022-11-20T09:35:42;65.60;;;44.47;;
41261;SDS011;29629;52.532;13.352;2022-11-20T09:38:10;66.65;;;46.95;;
41261;SDS011;29629;52.532;13.352;2022-11-20T09:40:38;64.88;;;46.10;;
41261;SDS011;29629;52.532;13.352;2022-11-20T09:43:10;71.22;;;48.72;;
41261;SDS011;29629;52.532;13.352;2022-11-20T09:45:49;85.13;;;51.45;;
41261;SDS011;29629;52.532;13.352;2022-11-20T09:48:29;72.30;;;48.00;;
41261;SDS011;29629;52.532;13.352;2022-11-20T09:51:13;64.15;;;44.25;;
41261;SDS011;29629;52.532;13.352;2022-11-20T09:53:53;68.75;;;46.92;;
41261;SDS011;29629;52.532;13.352;2022-11-20T09:56:33;67.15;;;48.95;;
41261;SDS011;29629;52.532;13.352;2022-11-20T09:59:04;71.70;;;46.50;;
41261;SDS011;29629;52.532;13.352;2022-11-20T10:01:35;70.10;;;47.10;;
41261;SDS011;29629;52.532;13.352;2022-11-20T10:04:06;68.30;;;47.22;;
41261;SDS011;29629;52.532;13.352;2022-11-20T10:06:40;70.97;;;48.10;;
41261;SDS011;29629;52.532;13.352;2022-11-20T10:09:14;67.72;;;45.88;;
41261;SDS011;29629;52.532;13.352;2022-11-20T10:11:48;64.75;;;44.63;;
41261;SDS011;29629;52.532;13.352;2022-11-20T10:14:26;56.47;;;41.35;;
41261;SDS011;29629;52.532;13.352;2022-11-20T10:17:03;59.22;;;43.15;;
41261;SDS011;29629;52.532;13.352;2022-11-20T10:19:45;64.55;;;44.08;;
41261;SDS011;29629;52.532;13.352;2022-11-20T10:22:22;58.75;;;43.03;;
41261;SDS011;29629;52.532;13.352;2022-11-20T10:25:00;71.05;;;47.97;;
41261;SDS011;29629;52.532;13.352;2022-11-20T10:27:36;62.92;;;43.05;;
41261;SDS011;29629;52.532;13.352;2022-11-20T10:30:20;67.07;;;46.45;;
41261;SDS011;29629;52.532;13.352;2022-11-20T10:32:52;61.95;;;44.88;;
41261;SDS011;29629;52.532;13.352;2022-11-20T10:35:21;68.25;;;47.08;;
41261;SDS011;29629;52.532;13.352;2022-11-20T10:37:55;76.13;;;52.40;;
41261;SDS011;29629;52.532;13.352;2022-11-20T10:40:28;73.75;;;53.53;;
41261;SDS011;29629;52.532;13.352;2022-11-20T10:43:01;84.13;;;55.00;;
41261;SDS011;29629;52.532;13.352;2022-11-20T10:45:36;74.35;;;51.25;;
41261;SDS011;29629;52.532;13.352;2022-11-20T10:48:22;61.03;;;46.97;;
41261;SDS011;29629;52.532;13.352;2022-11-20T10:51:03;76.18;;;51.63;;
41261;SDS011;29629;52.532;13.352;2022-11-20T10:56:38;70.90;;;49.38;;
41261;SDS011;29629;52.532;13.352;2022-11-20T10:59:14;69.60;;;49.22;;
41261;SDS011;29629;52.532;13.352;2022-11-20T11:01:56;72.10;;;52.65;;
41261;SDS011;29629;52.532;13.352;2022-11-20T11:04:28;70.40;;;50.38;;
41261;SDS011;29629;52.532;13.352;2022-11-20T11:07:05;63.10;;;46.28;;
41261;SDS011;29629;52.532;13.352;2022-11-20T11:09:37;65.32;;;47.90;;
41261;SDS011;29629;52.532;13.352;2022-11-20T11:12:07;63.40;;;47.13;;
41261;SDS011;29629;52.532;13.352;2022-11-20T11:14:41;58.75;;;44.60;;
41261;SDS011;29629;52.532;13.352;2022-11-20T11:17:18;59.17;;;42.13;;
41261;SDS011;29629;52.532;13.352;2022-11-20T11:20:03;59.22;;;44.53;;
41261;SDS011;29629;52.532;13.352;2022-11-20T11:22:33;56.72;;;45.88;;
41261;SDS011;29629;52.532;13.352;2022-11-20T11:25:07;63.33;;;46.80;;
41261;SDS011;29629;52.532;13.352;2022-11-20T11:27:45;65.15;;;45.53;;
41261;SDS011;29629;52.532;13.352;2022-11-20T11:30:13;73.78;;;49.63;;
41261;SDS011;29629;52.532;13.352;2022-11-20T11:32:41;57.25;;;42.60;;
41261;SDS011;29629;52.532;13.352;2022-11-20T11:35:19;59.33;;;43.40;;
41261;SDS011;29629;52.532;13.352;2022-11-20T11:37:47;59.78;;;44.05;;
41261;SDS011;29629;52.532;13.352;2022-11-20T11:40:26;56.40;;;43.00;;
41261;SDS011;29629;52.532;13.352;2022-11-20T11:42:57;62.22;;;44.55;;
41261;SDS011;29629;52.532;13.352;2022-11-20T11:45:25;55.40;;;42.50;;
41261;SDS011;29629;52.532;13.352;2022-11-20T11:47:52;62.33;;;45.47;;
41261;SDS011;29629;52.532;13.352;2022-11-20T11:50:21;56.38;;;44.05;;
41261;SDS011;29629;52.532;13.352;2022-11-20T11:52:51;53.88;;;39.70;;
41261;SDS011;29629;52.532;13.352;2022-11-20T11:55:37;60.07;;;42.10;;
41261;SDS011;29629;52.532;13.352;2022-11-20T11:58:13;61.20;;;42.58;;
41261;SDS011;29629;52.532;13.352;2022-11-20T12:00:48;61.65;;;41.72;;
41261;SDS011;29629;52.532;13.352;2022-11-20T12:03:21;64.97;;;42.97;;
41261;SDS011;29629;52.532;13.352;2022-11-20T12:05:55;54.35;;;40.67;;
41261;SDS011;29629;52.532;13.352;2022-11-20T12:08:25;53.13;;;38.83;;
41261;SDS011;29629;52.532;13.352;2022-11-20T12:10:59;49.35;;;36.60;;
41261;SDS011;29629;52.532;13.352;2022-11-20T12:13:36;49.88;;;37.47;;
41261;SDS011;29629;52.532;13.352;2022-11-20T12:16:14;64.88;;;45.05;;
41261;SDS011;29629;52.532;13.352;2022-11-20T12:18:44;54.38;;;42.67;;
41261;SDS011;29629;52.532;13.352;2022-11-20T12:21:18;58.65;;;42.17;;
41261;SDS011;29629;52.532;13.352;2022-11-20T12:23:59;67.32;;;42.55;;
41261;SDS011;29629;52.532;13.352;2022-11-20T12:26:42;52.95;;;39.28;;
41261;SDS011;29629;52.532;13.352;2022-11-20T12:29:21;56.92;;;41.95;;
41261;SDS011;29629;52.532;13.352;2022-11-20T12:32:22;70.22;;;46.30;;
41261;SDS011;29629;52.532;13.352;2022-11-20T12:35:01;50.70;;;40.22;;
41261;SDS011;29629;52.532;13.352;2022-11-20T12:37:37;55.63;;;39.45;;
41261;SDS011;29629;52.532;13.352;2022-11-20T12:42:51;56.88;;;40.92;;
41261;SDS011;29629;52.532;13.352;2022-11-20T12:45:54;71.28;;;47.65;;
41261;SDS011;29629;52.532;13.352;2022-11-20T12:48:41;58.08;;;42.28;;
41261;SDS011;29629;52.532;13.352;2022-11-20T12:51:21;75.82;;;67.93;;
41261;SDS011;29629;52.532;13.352;2022-11-20T12:54:08;55.47;;;40.53;;
41261;SDS011;29629;52.532;13.352;2022-11-20T12:56:53;64.55;;;57.53;;
41261;SDS011;29629;52.532;13.352;2022-11-20T12:59:33;65.82;;;53.85;;
41261;SDS011;29629;52.532;13.352;2022-11-20T13:02:14;54.60;;;47.92;;
41261;SDS011;29629;52.532;13.352;2022-11-20T13:05:10;64.70;;;52.30;;
41261;SDS011;29629;52.532;13.352;2022-11-20T13:07:45;61.20;;;44.03;;
41261;SDS011;29629;52.532;13.352;2022-11-20T13:10:14;75.82;;;47.45;;
41261;SDS011;29629;52.532;13.352;2022-11-20T13:12:49;62.03;;;42.80;;
41261;SDS011;29629;52.532;13.352;2022-11-20T13:15:26;57.60;;;40.70;;
41261;SDS011;29629;52.532;13.352;2022-11-20T13:18:06;56.53;;;40.13;;
41261;SDS011;29629;52.532;13.352;2022-11-20T13:20:36;62.67;;;43.03;;
41261;SDS011;29629;52.532;13.352;2022-11-20T13:23:09;47.20;;;38.25;;
41261;SDS011;29629;52.532;13.352;2022-11-20T13:25:36;51.22;;;39.17;;
41261;SDS011;29629;52.532;13.352;2022-11-20T13:28:05;55.88;;;39.92;;
41261;SDS011;29629;52.532;13.352;2022-11-20T13:30:55;51.13;;;37.85;;
41261;SDS011;29629;52.532;13.352;2022-11-20T13:33:25;50.00;;;37.78;;
41261;SDS011;29629;52.532;13.352;2022-11-20T13:35:56;53.90;;;39.33;;
41261;SDS011;29629;52.532;13.352;2022-11-20T13:38:25;45.78;;;37.53;;
41261;SDS011;29629;52.532;13.352;2022-11-20T13:40:53;44.95;;;36.25;;
41261;SDS011;29629;52.532;13.352;2022-11-20T13:43:23;50.67;;;37.88;;
41261;SDS011;29629;52.532;13.352;2022-11-20T13:45:56;42.45;;;36.08;;
41261;SDS011;29629;52.532;13.352;2022-11-20T13:48:25;50.53;;;38.10;;
41261;SDS011;29629;52.532;13.352;2022-11-20T13:50:58;47.80;;;34.60;;
41261;SDS011;29629;52.532;13.352;2022-11-20T13:53:37;39.67;;;32.97;;
41261;SDS011;29629;52.532;13.352;2022-11-20T13:56:21;45.73;;;34.17;;
41261;SDS011;29629;52.532;13.352;2022-11-20T13:59:08;36.03;;;32.22;;
41261;SDS011;29629;52.532;13.352;2022-11-20T14:01:46;42.78;;;35.13;;
41261;SDS011;29629;52.532;13.352;2022-11-20T14:04:15;47.08;;;36.03;;
41261;SDS011;29629;52.532;13.352;2022-11-20T14:06:46;45.33;;;33.53;;
41261;SDS011;29629;52.532;13.352;2022-11-20T14:09:24;34.83;;;31.05;;
41261;SDS011;29629;52.532;13.352;2022-11-20T14:11:53;45.20;;;34.17;;
41261;SDS011;29629;52.532;13.352;2022-11-20T14:14:21;40.70;;;33.55;;
41261;SDS011;29629;52.532;13.352;2022-11-20T14:16:51;35.30;;;31.52;;
41261;SDS011;29629;52.532;13.352;2022-11-20T14:19:26;33.70;;;30.42;;
41261;SDS011;29629;52.532;13.352;2022-11-20T14:22:07;37.85;;;32.88;;
41261;SDS011;29629;52.532;13.352;2022-11-20T14:24:36;32.22;;;29.25;;
41261;SDS011;29629;52.532;13.352;2022-11-20T14:27:03;41.20;;;32.13;;
41261;SDS011;29629;52.532;13.352;2022-11-20T14:29:34;34.78;;;31.15;;
41261;SDS011;29629;52.532;13.352;2022-11-20T14:32:05;33.92;;;30.30;;
41261;SDS011;29629;52.532;13.352;2022-11-20T14:34:32;35.35;;;30.70;;